createdAt,value
2022-12-25T00:01:57.853Z,19.23
2022-12-25T00:04:47.147Z,22.45
2022-12-25T00:07:35.090Z,18.00
2022-12-25T00:10:23.026Z,18.73
2022-12-25T00:13:11.001Z,20.33
2022-12-25T00:15:59.060Z,25.97
2022-12-25T00:18:47.903Z,22.98
2022-12-25T00:21:37.274Z,18.55
2022-12-25T00:24:25.294Z,22.98
2022-12-25T00:27:13.226Z,19.98
2022-12-25T00:30:01.784Z,22.37
2022-12-25T00:32:49.841Z,22.42
2022-12-25T00:35:37.877Z,22.92
2022-12-25T00:38:27.544Z,24.50
2022-12-25T00:41:18.021Z,20.30
2022-12-25T00:44:06.209Z,22.67
2022-12-25T00:46:54.292Z,23.83
2022-12-25T00:49:42.404Z,24.58
2022-12-25T00:52:30.490Z,22.65
2022-12-25T00:55:19.887Z,21.50
2022-12-25T00:58:07.829Z,21.60
2022-12-25T01:00:56.274Z,25.15
2022-12-25T01:03:44.487Z,22.02
2022-12-25T01:06:32.615Z,23.02
2022-12-25T01:09:37.893Z,23.90
2022-12-25T01:12:27.172Z,20.57
2022-12-25T01:15:15.208Z,25.13
2022-12-25T01:18:07.771Z,24.35
2022-12-25T01:20:56.409Z,21.17
2022-12-25T01:23:44.747Z,22.77
2022-12-25T01:26:32.701Z,23.93
2022-12-25T01:29:22.066Z,22.35
2022-12-25T01:32:10.209Z,24.75
2022-12-25T01:34:58.240Z,21.20
2022-12-25T01:37:46.188Z,22.48
2022-12-25T01:40:34.962Z,24.03
2022-12-25T01:43:25.168Z,24.00
2022-12-25T01:46:14.567Z,21.38
2022-12-25T01:49:06.017Z,21.83
2022-12-25T01:51:59.436Z,21.50
2022-12-25T01:54:51.612Z,19.80
2022-12-25T01:57:41.538Z,21.23
2022-12-25T02:00:29.502Z,25.52
2022-12-25T02:03:19.180Z,23.25
2022-12-25T02:06:08.513Z,21.48
2022-12-25T02:08:56.674Z,24.47
2022-12-25T02:12:00.309Z,24.50
2022-12-25T02:14:50.317Z,24.80
2022-12-25T02:17:44.113Z,23.10
2022-12-25T02:21:01.121Z,21.80
2022-12-25T02:24:20.577Z,21.87
2022-12-25T02:27:16.896Z,24.33
2022-12-25T02:30:09.529Z,20.45
2022-12-25T02:33:15.594Z,23.60
2022-12-25T02:36:08.433Z,23.42
2022-12-25T02:39:19.088Z,22.57
2022-12-25T02:42:12.882Z,22.17
2022-12-25T02:45:17.788Z,23.40
2022-12-25T02:48:26.792Z,22.42
2022-12-25T02:51:35.025Z,23.20
2022-12-25T02:54:45.650Z,24.13
2022-12-25T02:57:55.174Z,25.33
2022-12-25T03:01:05.342Z,22.95
2022-12-25T03:04:14.673Z,23.67
2022-12-25T03:07:10.861Z,25.48
2022-12-25T03:10:23.677Z,27.37
2022-12-25T03:13:17.277Z,25.52
2022-12-25T03:16:23.987Z,27.95
2022-12-25T03:19:27.284Z,26.88
2022-12-25T03:22:37.266Z,25.38
2022-12-25T03:25:42.703Z,26.00
2022-12-25T03:28:30.694Z,22.48
2022-12-25T03:31:25.765Z,24.55
2022-12-25T03:34:48.944Z,25.02
2022-12-25T03:38:12.663Z,23.52
2022-12-25T03:41:27.849Z,24.53
2022-12-25T03:44:47.039Z,26.25
2022-12-25T03:47:56.609Z,23.92
2022-12-25T03:51:09.624Z,24.70
2022-12-25T03:54:20.237Z,29.05
2022-12-25T03:57:27.253Z,27.13
2022-12-25T04:00:33.512Z,26.23
2022-12-25T04:03:39.030Z,26.05
2022-12-25T04:06:45.787Z,31.20
2022-12-25T04:09:51.214Z,28.17
2022-12-25T04:12:56.911Z,27.10
2022-12-25T04:16:02.687Z,28.80
2022-12-25T04:19:08.380Z,22.45
2022-12-25T04:22:15.224Z,29.70
2022-12-25T04:25:20.930Z,24.70
2022-12-25T04:28:26.860Z,28.37
2022-12-25T04:31:32.631Z,27.95
2022-12-25T04:34:38.118Z,24.88
2022-12-25T04:37:27.433Z,28.20
2022-12-25T04:40:15.937Z,25.88
2022-12-25T04:43:03.895Z,24.87
2022-12-25T04:45:54.011Z,23.77
2022-12-25T04:48:41.962Z,23.92
2022-12-25T04:51:29.880Z,24.00
2022-12-25T04:54:19.226Z,20.38
2022-12-25T04:57:07.256Z,19.40
2022-12-25T04:59:55.258Z,21.27
2022-12-25T05:02:43.292Z,25.33
2022-12-25T05:05:31.434Z,19.20
2022-12-25T05:08:19.405Z,17.40
2022-12-25T05:11:10.278Z,18.50
2022-12-25T05:13:58.519Z,19.95
2022-12-25T05:16:46.689Z,18.45
2022-12-25T05:19:34.692Z,14.05
2022-12-25T05:22:22.665Z,15.88
2022-12-25T05:25:10.736Z,11.57
2022-12-25T05:28:00.131Z,13.18
2022-12-25T05:30:48.453Z,13.68
2022-12-25T05:33:36.558Z,15.18
2022-12-25T05:36:24.595Z,15.85
2022-12-25T05:39:12.528Z,14.37
2022-12-25T05:42:01.010Z,12.88
2022-12-25T05:44:50.295Z,12.73
2022-12-25T05:47:38.309Z,13.55
2022-12-25T05:50:26.347Z,20.02
2022-12-25T05:53:16.127Z,20.50
2022-12-25T05:56:06.140Z,15.38
2022-12-25T05:58:55.247Z,17.98
2022-12-25T06:01:44.744Z,19.20
2022-12-25T06:04:32.820Z,20.80
2022-12-25T06:07:20.758Z,22.70
2022-12-25T06:10:09.875Z,20.25
2022-12-25T06:12:57.859Z,24.55
2022-12-25T06:15:45.953Z,25.80
2022-12-25T06:18:37.719Z,20.58
2022-12-25T06:21:25.737Z,22.17
2022-12-25T06:24:19.327Z,21.75
2022-12-25T06:27:09.323Z,20.58
2022-12-25T06:29:57.275Z,23.65
2022-12-25T06:32:45.442Z,23.63
2022-12-25T06:35:34.754Z,23.30
2022-12-25T06:38:22.725Z,23.20
2022-12-25T06:41:13.259Z,27.27
2022-12-25T06:44:02.649Z,23.30
2022-12-25T06:46:51.123Z,22.02
2022-12-25T06:49:39.228Z,25.80
2022-12-25T06:52:28.612Z,26.02
2022-12-25T06:55:16.760Z,22.50
2022-12-25T06:58:05.050Z,27.17
2022-12-25T07:00:53.025Z,26.13
2022-12-25T07:03:41.007Z,29.57
2022-12-25T07:06:29.608Z,27.33
2022-12-25T07:09:18.905Z,32.08
2022-12-25T07:12:08.441Z,33.28
2022-12-25T07:14:56.859Z,29.85
2022-12-25T07:17:44.848Z,31.43
2022-12-25T07:20:32.842Z,31.08
2022-12-25T07:23:20.745Z,29.95
2022-12-25T07:26:11.667Z,28.30
2022-12-25T07:28:59.690Z,27.42
2022-12-25T07:31:47.987Z,26.33
2022-12-25T07:34:35.948Z,23.88
2022-12-25T07:37:23.936Z,26.73
2022-12-25T07:40:12.355Z,33.10
2022-12-25T07:43:01.602Z,32.67
2022-12-25T07:45:49.686Z,31.40
2022-12-25T07:48:38.136Z,25.23
2022-12-25T07:51:26.039Z,28.25
2022-12-25T07:54:14.049Z,25.08
2022-12-25T07:57:02.024Z,25.50
2022-12-25T07:59:51.466Z,24.17
2022-12-25T08:02:39.704Z,27.33
2022-12-25T08:05:27.909Z,23.65
2022-12-25T08:08:15.864Z,23.65
2022-12-25T08:11:03.917Z,27.58
2022-12-25T08:13:51.905Z,26.77
2022-12-25T08:16:42.257Z,23.15
2022-12-25T08:19:30.392Z,26.48
2022-12-25T08:22:18.292Z,25.55
2022-12-25T08:25:06.494Z,21.83
2022-12-25T08:27:54.490Z,21.90
2022-12-25T08:30:42.640Z,20.95
2022-12-25T08:33:32.018Z,21.42
2022-12-25T08:36:21.164Z,19.35
2022-12-25T08:39:09.711Z,19.80
2022-12-25T08:41:57.702Z,19.00
2022-12-25T08:44:45.662Z,17.77
2022-12-25T08:47:33.585Z,17.85
2022-12-25T08:50:22.921Z,19.08
2022-12-25T08:53:10.846Z,17.92
2022-12-25T08:55:59.964Z,18.33
2022-12-25T08:58:48.254Z,17.23
2022-12-25T09:01:36.353Z,16.85
2022-12-25T09:04:24.452Z,22.27
2022-12-25T09:07:13.980Z,18.40
2022-12-25T09:10:01.946Z,16.33
2022-12-25T09:12:49.937Z,15.18
2022-12-25T09:15:39.094Z,12.88
2022-12-25T09:18:27.317Z,13.82
2022-12-25T09:21:17.128Z,11.82
2022-12-25T09:24:06.874Z,12.13
2022-12-25T09:26:54.838Z,10.70
2022-12-25T09:29:42.769Z,10.38
2022-12-25T09:32:30.970Z,9.32
2022-12-25T09:35:19.067Z,13.05
2022-12-25T09:38:07.081Z,13.37
2022-12-25T09:41:02.248Z,12.68
2022-12-25T09:43:54.136Z,11.98
2022-12-25T09:46:46.269Z,13.30
2022-12-25T09:49:39.820Z,12.88
2022-12-25T09:52:38.005Z,12.20
2022-12-25T09:55:27.867Z,13.98
2022-12-25T09:58:17.315Z,13.68
2022-12-25T10:01:17.452Z,12.85
2022-12-25T10:04:23.174Z,16.23
2022-12-25T10:07:19.606Z,14.23
2022-12-25T10:10:25.134Z,14.02
2022-12-25T10:13:27.689Z,14.00
2022-12-25T10:16:24.326Z,14.48
2022-12-25T10:19:23.153Z,15.27
2022-12-25T10:22:17.604Z,15.83
2022-12-25T10:25:07.094Z,15.15
2022-12-25T10:27:59.286Z,15.80
2022-12-25T10:30:51.323Z,14.10
2022-12-25T10:33:39.341Z,13.55
2022-12-25T10:36:29.453Z,15.07
2022-12-25T10:39:19.571Z,15.02
2022-12-25T10:42:25.046Z,15.18
2022-12-25T10:45:13.289Z,15.57
2022-12-25T10:48:07.975Z,14.27
2022-12-25T10:50:56.897Z,16.00
2022-12-25T10:53:44.910Z,14.50
2022-12-25T10:56:32.836Z,15.52
2022-12-25T10:59:20.865Z,13.70
2022-12-25T11:02:17.020Z,12.68
2022-12-25T11:05:10.453Z,14.83
2022-12-25T11:08:00.704Z,18.80
2022-12-25T11:10:54.664Z,21.92
2022-12-25T11:13:51.959Z,18.73
2022-12-25T11:16:41.309Z,17.92
2022-12-25T11:19:31.625Z,22.60
2022-12-25T11:22:20.917Z,20.02
2022-12-25T11:25:21.814Z,16.45
2022-12-25T11:28:13.382Z,16.15
2022-12-25T11:31:03.995Z,15.40
2022-12-25T11:33:56.029Z,13.67
2022-12-25T11:36:46.103Z,13.38
2022-12-25T11:39:37.180Z,15.52
2022-12-25T11:42:29.129Z,13.88
2022-12-25T11:45:20.640Z,16.55
2022-12-25T11:48:14.636Z,17.07
2022-12-25T11:51:04.341Z,16.38
2022-12-25T11:53:55.105Z,14.25
2022-12-25T11:56:44.599Z,15.02
2022-12-25T11:59:39.222Z,17.70
2022-12-25T12:02:35.063Z,15.13
2022-12-25T12:05:27.161Z,14.95
2022-12-25T12:08:15.624Z,14.27
2022-12-25T12:11:19.529Z,16.55
2022-12-25T12:14:27.214Z,15.60
2022-12-25T12:17:18.369Z,14.73
2022-12-25T12:20:14.659Z,17.35
2022-12-25T12:23:11.781Z,14.35
2022-12-25T12:26:00.309Z,18.50
2022-12-25T12:28:50.026Z,19.38
2022-12-25T12:31:42.384Z,18.83
2022-12-25T12:34:37.329Z,21.85
2022-12-25T12:37:30.904Z,18.38
2022-12-25T12:40:30.014Z,21.40
2022-12-25T12:43:31.127Z,20.40
2022-12-25T12:46:29.801Z,17.93
2022-12-25T12:49:24.988Z,18.38
2022-12-25T12:52:24.649Z,17.90
2022-12-25T12:55:13.602Z,17.92
2022-12-25T12:58:03.548Z,18.42
2022-12-25T13:00:57.428Z,16.47
2022-12-25T13:03:58.545Z,18.08
2022-12-25T13:06:54.986Z,18.05
2022-12-25T13:09:57.712Z,20.40
2022-12-25T13:12:45.851Z,22.13
2022-12-25T13:15:16.872Z,24.50
2022-12-25T13:17:46.771Z,21.23
2022-12-25T13:20:24.711Z,23.88
2022-12-25T13:22:53.705Z,27.27
2022-12-25T13:25:22.851Z,23.33
2022-12-25T13:27:56.917Z,19.73
2022-12-25T13:30:25.870Z,19.52
2022-12-25T13:32:53.610Z,18.63
2022-12-25T13:35:23.908Z,21.45
2022-12-25T13:37:54.774Z,23.00
2022-12-25T13:40:25.975Z,23.23
2022-12-25T13:42:58.641Z,21.27
2022-12-25T13:45:28.247Z,21.60
2022-12-25T13:47:56.253Z,22.52
2022-12-25T13:50:46.626Z,22.75
2022-12-25T13:53:35.898Z,20.03
2022-12-25T13:56:23.896Z,20.67
2022-12-25T13:59:17.244Z,21.42
2022-12-25T14:02:17.219Z,20.42
2022-12-25T14:05:22.761Z,22.98
2022-12-25T14:08:15.831Z,20.57
2022-12-25T14:11:07.015Z,21.70
2022-12-25T14:13:58.818Z,22.15
2022-12-25T14:16:49.769Z,21.65
2022-12-25T14:19:37.909Z,19.52
2022-12-25T14:22:26.959Z,22.40
2022-12-25T14:25:16.491Z,21.52
2022-12-25T14:28:09.997Z,20.23
2022-12-25T14:30:58.031Z,21.55
2022-12-25T14:33:47.236Z,18.52
2022-12-25T14:36:35.709Z,23.80
2022-12-25T14:39:30.778Z,22.00
2022-12-25T14:42:22.775Z,24.70
2022-12-25T14:45:27.831Z,21.05
2022-12-25T14:48:24.515Z,21.17
2022-12-25T14:51:18.205Z,28.73
2022-12-25T14:54:16.565Z,24.20
2022-12-25T14:57:04.644Z,26.05
2022-12-25T15:00:02.776Z,27.02
2022-12-25T15:02:54.833Z,24.17
2022-12-25T15:05:42.878Z,25.43
2022-12-25T15:08:33.484Z,22.27
2022-12-25T15:11:21.429Z,22.92
2022-12-25T15:14:09.741Z,22.60
2022-12-25T15:17:01.510Z,23.38
2022-12-25T15:19:57.534Z,23.30
2022-12-25T15:23:17.867Z,24.13
2022-12-25T15:25:54.071Z,20.73
2022-12-25T15:28:42.854Z,28.35
2022-12-25T15:31:33.195Z,25.67
2022-12-25T15:34:21.989Z,25.87
2022-12-25T15:37:11.547Z,27.08
2022-12-25T15:39:59.621Z,24.50
2022-12-25T15:42:50.001Z,20.17
2022-12-25T15:45:38.249Z,21.95
2022-12-25T15:48:26.183Z,21.13
2022-12-25T15:51:14.077Z,25.30
2022-12-25T15:54:03.737Z,25.00
2022-12-25T15:56:54.074Z,23.08
2022-12-25T15:59:42.040Z,24.17
2022-12-25T16:02:30.120Z,22.10
2022-12-25T16:05:18.460Z,25.50
2022-12-25T16:08:06.792Z,28.40
2022-12-25T16:10:56.055Z,28.70
2022-12-25T16:13:44.252Z,26.85
2022-12-25T16:16:32.422Z,32.77
2022-12-25T16:19:20.357Z,27.33
2022-12-25T16:22:13.011Z,25.67
2022-12-25T16:25:01.367Z,27.65
2022-12-25T16:27:50.770Z,20.50
2022-12-25T16:30:40.171Z,22.03
2022-12-25T16:33:28.458Z,26.05
2022-12-25T16:36:19.492Z,27.10
2022-12-25T16:39:11.451Z,31.08
2022-12-25T16:41:59.539Z,30.25
2022-12-25T16:44:48.858Z,29.87
2022-12-25T16:47:36.822Z,27.63
2022-12-25T16:50:25.009Z,29.67
2022-12-25T16:53:13.283Z,23.38
2022-12-25T16:56:06.988Z,24.20
2022-12-25T16:58:55.527Z,22.30
2022-12-25T17:01:45.275Z,23.38
2022-12-25T17:04:33.359Z,21.55
2022-12-25T17:07:21.317Z,19.90
2022-12-25T17:10:10.900Z,22.65
2022-12-25T17:12:59.235Z,21.47
2022-12-25T17:15:50.600Z,23.52
2022-12-25T17:18:40.304Z,24.30
2022-12-25T17:21:29.531Z,23.02
2022-12-25T17:24:18.346Z,26.55
2022-12-25T17:27:08.516Z,26.50
2022-12-25T17:29:56.429Z,23.42
2022-12-25T17:32:44.328Z,25.80
2022-12-25T17:35:35.975Z,24.33
2022-12-25T17:38:23.870Z,27.83
2022-12-25T17:41:14.949Z,27.40
2022-12-25T17:44:02.861Z,33.60
2022-12-25T17:46:51.546Z,34.67
2022-12-25T17:49:39.447Z,29.63
2022-12-25T17:52:28.715Z,29.30
2022-12-25T17:55:16.758Z,32.97
2022-12-25T17:58:04.726Z,31.55
2022-12-25T18:00:53.703Z,33.80
2022-12-25T18:03:42.155Z,29.05
2022-12-25T18:06:30.233Z,25.50
2022-12-25T18:09:19.846Z,28.10
2022-12-25T18:12:09.296Z,24.08
2022-12-25T18:14:57.266Z,27.75
2022-12-25T18:17:45.281Z,27.70
2022-12-25T18:20:39.564Z,31.33
2022-12-25T18:23:28.352Z,24.80
2022-12-25T18:26:17.899Z,21.95
2022-12-25T18:29:06.827Z,22.10
2022-12-25T18:31:55.418Z,21.55
2022-12-25T18:34:43.499Z,24.75
2022-12-25T18:37:35.895Z,23.80
2022-12-25T18:40:27.855Z,24.23
2022-12-25T18:43:17.798Z,25.75
2022-12-25T18:46:07.206Z,27.67
2022-12-25T18:48:55.923Z,33.05
2022-12-25T18:51:43.981Z,33.07
2022-12-25T18:54:32.085Z,38.08
2022-12-25T18:57:20.094Z,32.65
2022-12-25T19:00:10.814Z,31.60
2022-12-25T19:02:59.929Z,41.50
2022-12-25T19:05:48.112Z,40.47
2022-12-25T19:08:36.232Z,41.38
2022-12-25T19:11:24.669Z,50.05
2022-12-25T19:14:12.767Z,39.90
2022-12-25T19:17:02.137Z,36.20
2022-12-25T19:19:50.121Z,32.20
2022-12-25T19:22:38.090Z,33.65
2022-12-25T19:25:26.065Z,33.67
2022-12-25T19:28:14.046Z,32.63
2022-12-25T19:31:03.265Z,37.92
2022-12-25T19:33:52.643Z,34.20
2022-12-25T19:36:40.632Z,34.22
2022-12-25T19:39:28.669Z,32.67
2022-12-25T19:42:18.791Z,31.30
2022-12-25T19:45:08.031Z,32.92
2022-12-25T19:47:58.096Z,29.77
2022-12-25T19:50:49.460Z,32.20
2022-12-25T19:53:37.460Z,25.60
2022-12-25T19:56:25.893Z,31.38
2022-12-25T19:59:14.601Z,33.40
2022-12-25T20:02:02.667Z,29.53
2022-12-25T20:04:51.032Z,32.42
2022-12-25T20:07:40.426Z,33.15
2022-12-25T20:10:28.347Z,34.50
2022-12-25T20:13:16.887Z,27.23
2022-12-25T20:16:06.181Z,39.17
2022-12-25T20:18:56.455Z,31.38
2022-12-25T20:21:44.442Z,29.63
2022-12-25T20:24:33.723Z,31.55
2022-12-25T20:27:21.672Z,34.75
2022-12-25T20:30:10.612Z,27.43
2022-12-25T20:32:58.764Z,26.10
2022-12-25T20:35:47.233Z,28.65
2022-12-25T20:38:36.949Z,29.42
2022-12-25T20:41:28.453Z,29.05
2022-12-25T20:44:17.264Z,30.30
2022-12-25T20:47:05.688Z,32.85
2022-12-25T20:49:54.315Z,35.03
2022-12-25T20:52:42.274Z,25.50
2022-12-25T20:55:30.198Z,25.30
2022-12-25T20:58:19.565Z,22.23
2022-12-25T21:01:10.101Z,20.10
2022-12-25T21:03:58.700Z,28.92
2022-12-25T21:06:47.837Z,27.13
2022-12-25T21:09:35.851Z,27.10
2022-12-25T21:12:25.228Z,25.50
2022-12-25T21:15:15.908Z,23.63
2022-12-25T21:18:04.186Z,23.15
2022-12-25T21:20:55.633Z,26.40
2022-12-25T21:23:43.973Z,20.90
2022-12-25T21:26:32.339Z,23.63
2022-12-25T21:29:22.900Z,22.33
2022-12-25T21:32:29.940Z,24.50
2022-12-25T21:35:18.086Z,21.02
2022-12-25T21:38:06.425Z,25.05
2022-12-25T21:40:54.368Z,23.17
2022-12-25T21:43:42.901Z,24.70
2022-12-25T21:46:31.098Z,21.63
2022-12-25T21:49:34.562Z,21.50
2022-12-25T21:52:22.503Z,22.95
2022-12-25T21:55:10.639Z,21.83
2022-12-25T21:57:58.607Z,20.92
2022-12-25T22:00:46.623Z,24.65
2022-12-25T22:03:34.738Z,20.50
2022-12-25T22:06:41.811Z,19.73
2022-12-25T22:09:30.206Z,19.93
2022-12-25T22:12:37.880Z,21.10
2022-12-25T22:15:39.872Z,24.70
2022-12-25T22:18:45.649Z,24.20
2022-12-25T22:21:34.985Z,20.52
2022-12-25T22:24:22.925Z,26.10
2022-12-25T22:27:11.065Z,26.70
2022-12-25T22:29:59.679Z,27.67
2022-12-25T22:32:48.100Z,27.73
2022-12-25T22:35:36.077Z,24.95
2022-12-25T22:38:25.458Z,26.13
2022-12-25T22:41:13.587Z,30.48
2022-12-25T22:44:18.298Z,28.67
2022-12-25T22:47:06.532Z,29.23
2022-12-25T22:49:54.570Z,30.08
2022-12-25T22:52:43.172Z,28.03
2022-12-25T22:55:32.504Z,32.33
2022-12-25T22:58:20.479Z,33.63
2022-12-25T23:01:09.640Z,27.52
2022-12-25T23:03:57.629Z,27.30
2022-12-25T23:06:46.398Z,29.50
2022-12-25T23:09:35.277Z,27.77
2022-12-25T23:12:42.430Z,26.00
2022-12-25T23:15:31.197Z,30.45
2022-12-25T23:18:35.922Z,27.98
2022-12-25T23:21:44.716Z,27.17
2022-12-25T23:24:50.198Z,27.75
2022-12-25T23:27:39.602Z,27.20
2022-12-25T23:30:27.666Z,28.60
2022-12-25T23:33:15.590Z,28.38
2022-12-25T23:36:03.558Z,29.83
2022-12-25T23:38:51.584Z,29.20
2022-12-25T23:41:40.117Z,27.15
2022-12-25T23:44:29.846Z,28.63
2022-12-25T23:47:17.888Z,27.58
2022-12-25T23:50:06.695Z,24.60
2022-12-25T23:52:54.683Z,27.83
2022-12-25T23:55:43.413Z,26.50
2022-12-25T23:58:31.474Z,24.75
